createdAt,value
2022-08-20T00:02:29.334Z,63.50
2022-08-20T00:05:35.553Z,63.92
2022-08-20T00:08:41.065Z,63.85
2022-08-20T00:11:46.774Z,63.71
2022-08-20T00:14:52.220Z,64.18
2022-08-20T00:17:58.285Z,64.15
2022-08-20T00:21:03.790Z,64.52
2022-08-20T00:24:09.180Z,64.13
2022-08-20T00:27:14.590Z,64.17
2022-08-20T00:30:20.866Z,63.80
2022-08-20T00:33:26.195Z,63.63
2022-08-20T00:36:32.845Z,63.93
2022-08-20T00:39:38.584Z,64.30
2022-08-20T00:42:45.258Z,64.15
2022-08-20T00:45:50.845Z,64.25
2022-08-20T00:48:57.727Z,64.25
2022-08-20T00:52:04.979Z,64.18
2022-08-20T00:55:12.330Z,64.21
2022-08-20T00:58:18.565Z,64.25
2022-08-20T01:01:24.236Z,64.33
2022-08-20T01:04:31.411Z,64.42
2022-08-20T01:07:37.372Z,64.53
2022-08-20T01:10:44.830Z,64.69
2022-08-20T01:13:50.717Z,64.89
2022-08-20T01:16:57.476Z,65.00
2022-08-20T01:20:05.219Z,65.02
2022-08-20T01:23:31.281Z,65.08
2022-08-20T01:26:38.921Z,65.25
2022-08-20T01:29:44.495Z,65.36
2022-08-20T01:32:49.944Z,65.78
2022-08-20T01:35:55.338Z,66.03
2022-08-20T01:39:01.380Z,65.16
2022-08-20T01:42:09.973Z,66.58
2022-08-20T01:45:15.847Z,66.74
2022-08-20T01:48:23.071Z,66.63
2022-08-20T01:51:30.777Z,64.59
2022-08-20T01:54:36.639Z,66.16
2022-08-20T01:57:42.298Z,62.74
2022-08-20T02:00:47.614Z,62.33
2022-08-20T02:03:54.177Z,66.63
2022-08-20T02:07:01.379Z,66.96
2022-08-20T02:10:07.914Z,67.05
2022-08-20T02:13:13.761Z,66.87
2022-08-20T02:16:19.216Z,66.67
2022-08-20T02:19:27.274Z,66.32
2022-08-20T02:22:37.960Z,66.09
2022-08-20T02:25:45.057Z,65.96
2022-08-20T02:28:50.946Z,65.78
2022-08-20T02:32:24.773Z,65.53
2022-08-20T02:35:22.133Z,65.37
2022-08-20T02:38:27.500Z,65.45
2022-08-20T02:41:32.772Z,65.44
2022-08-20T02:44:38.255Z,64.97
2022-08-20T02:47:44.258Z,65.85
2022-08-20T02:50:51.641Z,66.22
2022-08-20T02:53:56.960Z,66.33
2022-08-20T02:57:03.811Z,66.22
2022-08-20T03:00:14.462Z,66.24
2022-08-20T03:03:22.948Z,66.07
2022-08-20T03:06:28.555Z,66.02
2022-08-20T03:09:33.914Z,65.82
2022-08-20T03:12:39.278Z,65.56
2022-08-20T03:15:46.071Z,65.62
2022-08-20T03:18:52.043Z,65.74
2022-08-20T03:21:58.062Z,65.92
2022-08-20T03:25:03.348Z,66.12
2022-08-20T03:28:09.173Z,66.31
2022-08-20T03:31:15.474Z,66.45
2022-08-20T03:34:20.861Z,66.59
2022-08-20T03:37:26.205Z,67.03
2022-08-20T03:40:33.690Z,64.55
2022-08-20T03:43:41.035Z,63.34
2022-08-20T03:46:46.536Z,65.93
2022-08-20T03:49:51.924Z,67.34
2022-08-20T03:52:57.747Z,66.53
2022-08-20T03:56:05.170Z,68.14
2022-08-20T03:59:10.509Z,66.91
2022-08-20T04:02:15.992Z,64.05
2022-08-20T04:05:21.560Z,64.37
2022-08-20T04:08:30.592Z,68.28
2022-08-20T04:11:37.645Z,68.79
2022-08-20T04:14:43.146Z,68.78
2022-08-20T04:17:50.227Z,68.60
2022-08-20T04:20:55.868Z,68.09
2022-08-20T04:24:01.636Z,64.61
2022-08-20T04:27:08.347Z,65.28
2022-08-20T04:30:15.440Z,65.40
2022-08-20T04:33:22.740Z,66.01
2022-08-20T04:36:40.608Z,66.30
2022-08-20T04:40:06.328Z,66.96
2022-08-20T04:43:12.359Z,67.37
2022-08-20T04:46:17.830Z,67.98
2022-08-20T04:49:25.147Z,67.96
2022-08-20T04:52:32.975Z,68.30
2022-08-20T04:55:41.817Z,67.87
2022-08-20T04:58:51.299Z,68.90
2022-08-20T05:01:56.641Z,69.26
2022-08-20T05:05:01.845Z,68.34
2022-08-20T05:08:07.327Z,68.38
2022-08-20T05:11:36.067Z,68.60
2022-08-20T05:14:43.613Z,68.06
2022-08-20T05:17:50.309Z,69.02
2022-08-20T05:21:04.563Z,67.70
2022-08-20T05:24:10.164Z,68.15
2022-08-20T05:27:24.706Z,67.89
2022-08-20T05:30:33.414Z,67.96
2022-08-20T05:33:40.067Z,67.34
2022-08-20T05:36:49.110Z,68.73
2022-08-20T05:39:54.975Z,68.55
2022-08-20T05:43:00.558Z,68.04
2022-08-20T05:46:06.025Z,67.90
2022-08-20T05:49:11.929Z,68.07
2022-08-20T05:52:18.558Z,67.49
2022-08-20T05:55:24.072Z,67.99
2022-08-20T05:58:31.283Z,68.05
2022-08-20T06:01:38.460Z,68.25
2022-08-20T06:04:43.916Z,68.42
2022-08-20T06:07:50.760Z,68.02
2022-08-20T06:11:00.707Z,67.22
2022-08-20T06:14:06.623Z,66.80
2022-08-20T06:17:13.489Z,65.86
2022-08-20T06:20:19.180Z,65.83
2022-08-20T06:23:25.880Z,65.38
2022-08-20T06:26:31.829Z,64.54
2022-08-20T06:29:37.112Z,64.44
2022-08-20T06:32:42.816Z,63.23
2022-08-20T06:35:49.081Z,64.26
2022-08-20T06:38:58.492Z,64.70
2022-08-20T06:42:03.899Z,64.40
2022-08-20T06:45:11.583Z,64.46
2022-08-20T06:48:17.395Z,64.85
2022-08-20T06:51:23.440Z,64.95
2022-08-20T06:54:29.436Z,64.39
2022-08-20T06:57:35.944Z,65.02
2022-08-20T07:00:42.614Z,64.84
2022-08-20T07:03:54.926Z,64.74
2022-08-20T07:07:01.300Z,64.29
2022-08-20T07:10:07.624Z,64.66
2022-08-20T07:13:15.837Z,65.03
2022-08-20T07:16:21.285Z,64.67
2022-08-20T07:19:26.651Z,63.66
2022-08-20T07:22:32.609Z,64.12
2022-08-20T07:25:38.004Z,64.41
2022-08-20T07:28:43.491Z,63.16
2022-08-20T07:32:06.593Z,62.63
2022-08-20T07:35:16.349Z,61.94
2022-08-20T07:38:24.651Z,61.43
2022-08-20T07:41:30.084Z,60.65
2022-08-20T07:44:35.409Z,60.42
2022-08-20T07:47:41.833Z,60.23
2022-08-20T07:50:50.342Z,60.23
2022-08-20T07:53:58.294Z,59.14
2022-08-20T07:57:04.052Z,60.34
2022-08-20T08:00:10.924Z,61.54
2022-08-20T08:03:16.275Z,61.37
2022-08-20T08:06:30.450Z,60.32
2022-08-20T08:09:37.069Z,60.33
2022-08-20T08:12:43.547Z,58.05
2022-08-20T08:15:50.745Z,58.30
2022-08-20T08:18:58.609Z,61.54
2022-08-20T08:22:05.153Z,61.08
2022-08-20T08:25:13.762Z,58.93
2022-08-20T08:28:19.723Z,58.10
2022-08-20T08:31:25.968Z,60.85
2022-08-20T08:34:32.871Z,58.61
2022-08-20T08:37:41.442Z,59.64
2022-08-20T08:40:48.501Z,59.90
2022-08-20T08:44:00.846Z,58.35
2022-08-20T08:47:18.455Z,56.25
2022-08-20T08:50:49.956Z,59.14
2022-08-20T08:53:53.540Z,59.47
2022-08-20T08:56:59.641Z,59.21
2022-08-20T09:00:07.338Z,59.11
2022-08-20T09:03:16.511Z,57.82
2022-08-20T09:06:24.106Z,58.56
2022-08-20T09:09:31.500Z,55.90
2022-08-20T09:12:36.947Z,55.05
2022-08-20T09:15:42.521Z,56.15
2022-08-20T09:18:48.114Z,57.81
2022-08-20T09:21:53.641Z,57.57
2022-08-20T09:24:59.554Z,57.04
2022-08-20T09:28:05.171Z,54.09
2022-08-20T09:31:10.487Z,54.26
2022-08-20T09:34:15.910Z,54.89
2022-08-20T09:37:21.331Z,56.19
2022-08-20T09:40:26.703Z,55.91
2022-08-20T09:43:32.172Z,55.54
2022-08-20T09:46:37.614Z,55.01
2022-08-20T09:49:42.965Z,55.26
2022-08-20T09:52:50.046Z,55.14
2022-08-20T09:55:58.930Z,55.27
2022-08-20T09:59:04.542Z,54.22
2022-08-20T10:02:09.925Z,54.77
2022-08-20T10:05:15.581Z,55.11
2022-08-20T10:08:20.932Z,55.54
2022-08-20T10:11:26.346Z,55.71
2022-08-20T10:14:35.570Z,55.53
2022-08-20T10:17:42.650Z,55.68
2022-08-20T10:20:47.966Z,56.15
2022-08-20T10:23:53.455Z,56.14
2022-08-20T10:26:59.629Z,54.98
2022-08-20T10:30:05.763Z,55.43
2022-08-20T10:33:11.127Z,55.56
2022-08-20T10:36:17.774Z,55.90
2022-08-20T10:39:23.274Z,56.33
2022-08-20T10:42:28.654Z,56.58
2022-08-20T10:45:34.112Z,57.03
2022-08-20T10:48:41.806Z,56.69
2022-08-20T10:51:47.183Z,56.40
2022-08-20T10:54:52.962Z,56.25
2022-08-20T10:57:58.513Z,56.40
2022-08-20T11:01:04.161Z,56.07
2022-08-20T11:04:09.500Z,55.96
2022-08-20T11:07:16.982Z,55.75
2022-08-20T11:10:22.592Z,55.57
2022-08-20T11:13:28.049Z,56.13
2022-08-20T11:16:33.367Z,54.91
2022-08-20T11:19:41.817Z,55.84
2022-08-20T11:22:47.172Z,55.41
2022-08-20T11:25:52.701Z,55.50
2022-08-20T11:28:58.286Z,55.77
2022-08-20T11:32:03.974Z,54.84
2022-08-20T11:35:41.108Z,54.95
2022-08-20T11:38:37.744Z,55.38
2022-08-20T11:41:45.797Z,53.73
2022-08-20T11:44:52.396Z,53.73
2022-08-20T11:47:57.959Z,54.51
2022-08-20T11:51:06.298Z,54.71
2022-08-20T11:54:11.604Z,54.27
2022-08-20T11:57:21.431Z,54.53
2022-08-20T12:00:32.172Z,54.45
2022-08-20T12:03:38.639Z,52.77
2022-08-20T12:06:43.872Z,52.93
2022-08-20T12:09:50.997Z,52.30
2022-08-20T12:12:56.899Z,52.40
2022-08-20T12:16:02.413Z,53.71
2022-08-20T12:19:07.635Z,53.68
2022-08-20T12:22:21.342Z,54.33
2022-08-20T12:25:29.940Z,54.62
2022-08-20T12:28:35.365Z,54.21
2022-08-20T12:31:40.701Z,54.72
2022-08-20T12:34:46.013Z,54.88
2022-08-20T12:37:51.863Z,54.88
2022-08-20T12:40:57.279Z,54.14
2022-08-20T12:44:07.118Z,54.68
2022-08-20T12:47:19.514Z,53.13
2022-08-20T12:50:31.256Z,51.69
2022-08-20T12:53:37.098Z,52.34
2022-08-20T12:56:42.430Z,52.93
2022-08-20T12:59:47.747Z,50.95
2022-08-20T13:02:54.095Z,52.96
2022-08-20T13:06:02.008Z,50.75
2022-08-20T13:09:07.283Z,49.15
2022-08-20T13:12:14.249Z,48.81
2022-08-20T13:15:20.258Z,48.36
2022-08-20T13:18:25.597Z,49.76
2022-08-20T13:21:30.885Z,48.19
2022-08-20T13:24:36.271Z,45.20
2022-08-20T13:27:43.836Z,46.08
2022-08-20T13:30:49.157Z,45.44
2022-08-20T13:33:54.528Z,45.13
2022-08-20T13:36:59.985Z,46.08
2022-08-20T13:40:07.436Z,47.51
2022-08-20T13:43:12.973Z,48.87
2022-08-20T13:46:18.278Z,50.19
2022-08-20T13:49:23.613Z,50.92
2022-08-20T13:52:29.070Z,52.06
2022-08-20T13:55:34.455Z,54.07
2022-08-20T13:58:39.883Z,55.35
2022-08-20T14:01:45.304Z,56.12
2022-08-20T14:04:51.276Z,57.12
2022-08-20T14:07:57.005Z,57.63
2022-08-20T14:11:02.558Z,57.98
2022-08-20T14:14:07.886Z,58.67
2022-08-20T14:17:18.667Z,58.77
2022-08-20T14:20:25.391Z,59.88
2022-08-20T14:23:36.824Z,60.93
2022-08-20T14:26:42.551Z,60.65
2022-08-20T14:29:48.485Z,60.79
2022-08-20T14:32:54.088Z,61.05
2022-08-20T14:35:59.475Z,61.64
2022-08-20T14:39:04.800Z,61.93
2022-08-20T14:42:10.279Z,60.24
2022-08-20T14:45:15.690Z,59.04
2022-08-20T14:48:21.064Z,61.52
2022-08-20T14:51:26.446Z,62.53
2022-08-20T14:54:32.221Z,62.46
2022-08-20T14:57:39.150Z,59.42
2022-08-20T15:00:44.937Z,59.32
2022-08-20T15:03:50.519Z,59.68
2022-08-20T15:06:56.677Z,61.92
2022-08-20T15:10:08.757Z,61.91
2022-08-20T15:13:14.222Z,60.74
2022-08-20T15:16:19.738Z,61.03
2022-08-20T15:19:25.071Z,60.49
2022-08-20T15:22:30.547Z,60.10
2022-08-20T15:25:37.909Z,62.83
2022-08-20T15:28:44.072Z,68.64
2022-08-20T15:31:49.385Z,68.74
2022-08-20T15:34:54.694Z,69.91
2022-08-20T15:38:00.237Z,70.84
2022-08-20T15:41:05.713Z,70.77
2022-08-20T15:44:11.156Z,71.57
2022-08-20T15:47:22.557Z,71.12
2022-08-20T15:50:38.762Z,71.71
2022-08-20T15:53:49.985Z,70.72
2022-08-20T15:57:03.403Z,70.68
2022-08-20T16:00:13.454Z,69.54
2022-08-20T16:03:27.560Z,71.60
2022-08-20T16:06:34.377Z,71.05
2022-08-20T16:09:50.690Z,70.10
2022-08-20T16:12:58.395Z,69.45
2022-08-20T16:16:04.545Z,69.27
2022-08-20T16:19:13.348Z,72.07
2022-08-20T16:22:19.794Z,73.68
2022-08-20T16:25:29.015Z,72.54
2022-08-20T16:28:37.805Z,68.17
2022-08-20T16:31:45.985Z,75.36
2022-08-20T16:34:55.837Z,77.21
2022-08-20T16:38:04.895Z,80.37
2022-08-20T16:41:13.517Z,81.41
2022-08-20T16:44:23.118Z,81.36
2022-08-20T16:47:30.770Z,81.76
2022-08-20T16:50:39.450Z,79.73
2022-08-20T16:53:45.026Z,79.16
2022-08-20T16:56:51.230Z,77.13
2022-08-20T17:00:06.446Z,76.24
2022-08-20T17:03:21.679Z,77.99
2022-08-20T17:06:46.348Z,77.58
2022-08-20T17:09:52.258Z,78.80
2022-08-20T17:12:59.802Z,79.02
2022-08-20T17:16:06.495Z,78.73
2022-08-20T17:19:14.782Z,77.71
2022-08-20T17:22:20.713Z,77.99
2022-08-20T17:25:32.470Z,79.85
2022-08-20T17:28:37.855Z,79.83
2022-08-20T17:31:44.648Z,79.29
2022-08-20T17:34:51.256Z,79.84
2022-08-20T17:37:56.783Z,80.12
2022-08-20T17:41:03.553Z,80.46
2022-08-20T17:44:10.257Z,81.79
2022-08-20T17:47:16.657Z,81.66
2022-08-20T17:50:25.467Z,81.42
2022-08-20T17:53:33.251Z,81.06
2022-08-20T17:56:41.257Z,81.92
2022-08-20T18:00:00.961Z,81.77
2022-08-20T18:03:15.841Z,80.15
2022-08-20T18:06:30.487Z,80.94
2022-08-20T18:09:39.895Z,80.78
2022-08-20T18:12:56.195Z,81.71
2022-08-20T18:16:02.981Z,82.24
2022-08-20T18:19:15.153Z,82.05
2022-08-20T18:22:21.858Z,81.88
2022-08-20T18:25:38.034Z,81.91
2022-08-20T18:28:46.891Z,81.29
2022-08-20T18:31:54.429Z,80.22
2022-08-20T18:35:10.065Z,80.16
2022-08-20T18:38:25.836Z,80.19
2022-08-20T18:41:32.690Z,81.24
2022-08-20T18:44:40.279Z,80.26
2022-08-20T18:47:47.443Z,80.49
2022-08-20T18:50:56.142Z,82.43
2022-08-20T18:54:01.706Z,81.86
2022-08-20T18:57:09.215Z,81.12
2022-08-20T19:00:17.208Z,80.88
2022-08-20T19:03:27.534Z,80.97
2022-08-20T19:06:42.761Z,81.54
2022-08-20T19:10:04.542Z,81.06
2022-08-20T19:13:20.649Z,81.93
2022-08-20T19:16:32.028Z,82.53
2022-08-20T19:19:38.129Z,82.88
2022-08-20T19:22:45.137Z,83.43
2022-08-20T19:25:55.497Z,83.80
2022-08-20T19:29:03.482Z,82.00
2022-08-20T19:32:10.248Z,81.69
2022-08-20T19:35:18.489Z,81.52
2022-08-20T19:38:23.929Z,81.97
2022-08-20T19:41:32.366Z,80.98
2022-08-20T19:44:40.859Z,80.74
2022-08-20T19:47:50.498Z,82.10
2022-08-20T19:51:02.789Z,81.65
2022-08-20T19:54:08.552Z,83.46
2022-08-20T19:57:14.328Z,81.80
2022-08-20T20:00:20.035Z,81.53
2022-08-20T20:03:27.737Z,81.44
2022-08-20T20:06:37.006Z,81.50
2022-08-20T20:09:43.132Z,81.58
2022-08-20T20:12:49.591Z,82.30
2022-08-20T20:19:28.113Z,82.25
2022-08-20T20:22:36.123Z,83.29
2022-08-20T20:25:47.551Z,83.63
2022-08-20T20:28:54.716Z,81.67
2022-08-20T20:32:01.727Z,81.97
2022-08-20T20:35:08.510Z,82.25
2022-08-20T20:48:55.111Z,81.67
2022-08-20T20:52:02.696Z,81.14
2022-08-20T20:55:11.625Z,82.38
2022-08-20T20:58:17.406Z,80.98
2022-08-20T21:01:45.716Z,81.65
2022-08-20T21:04:50.670Z,82.15
2022-08-20T21:07:57.852Z,81.04
2022-08-20T21:11:03.626Z,81.00
2022-08-20T21:14:09.267Z,82.42
2022-08-20T21:17:16.780Z,82.11
2022-08-20T21:20:23.442Z,82.03
2022-08-20T21:23:41.901Z,81.77
2022-08-20T21:26:48.079Z,81.17
2022-08-20T21:29:54.005Z,81.99
2022-08-20T21:32:59.810Z,82.79
2022-08-20T21:36:06.083Z,82.19
2022-08-20T21:39:11.753Z,81.79
2022-08-20T21:42:29.059Z,83.45
2022-08-20T21:45:35.871Z,83.87
2022-08-20T21:48:46.342Z,82.69
2022-08-20T21:51:53.989Z,82.01
2022-08-20T21:54:59.434Z,81.69
2022-08-20T21:58:05.645Z,81.07
2022-08-20T22:01:12.105Z,80.21
2022-08-20T22:04:17.915Z,80.99
2022-08-20T22:07:23.758Z,80.98
2022-08-20T22:10:29.452Z,81.25
2022-08-20T22:13:35.607Z,81.15
2022-08-20T22:16:42.337Z,80.56
2022-08-20T22:19:51.121Z,79.93
2022-08-20T22:22:57.121Z,80.05
2022-08-20T22:26:02.977Z,80.82
2022-08-20T22:29:09.364Z,80.02
2022-08-20T22:32:16.059Z,79.80
2022-08-20T22:35:23.402Z,79.78
2022-08-20T22:38:29.196Z,78.88
2022-08-20T22:41:35.555Z,79.65
2022-08-20T22:44:42.261Z,79.79
2022-08-20T22:47:47.982Z,78.65
2022-08-20T22:50:56.194Z,79.03
2022-08-20T22:54:02.871Z,79.66
2022-08-20T22:57:08.764Z,78.73
2022-08-20T23:00:16.920Z,79.49
2022-08-20T23:03:32.204Z,79.30
2022-08-20T23:06:45.320Z,78.52
2022-08-20T23:09:50.859Z,78.90
2022-08-20T23:12:57.348Z,77.87
2022-08-20T23:16:03.057Z,78.64
2022-08-20T23:19:10.059Z,79.61
2022-08-20T23:22:15.844Z,80.11
2022-08-20T23:25:21.464Z,78.53
2022-08-20T23:28:27.158Z,78.18
2022-08-20T23:31:32.986Z,78.90
2022-08-20T23:34:38.602Z,79.24
2022-08-20T23:37:45.589Z,78.94
2022-08-20T23:40:51.355Z,78.65
2022-08-20T23:43:56.854Z,78.95
2022-08-20T23:47:03.475Z,78.35
2022-08-20T23:50:13.253Z,79.43
2022-08-20T23:53:21.378Z,78.05
2022-08-20T23:56:28.092Z,77.52
2022-08-20T23:59:36.245Z,77.03
